Terminal Aerodrome Forecast
Issued by NWS Corpus Christi, TX

Home | Current Version | Previous Version | Text Only | Print | Product List | Glossary On
Versions: 1 2 3 4 5 6 7 8 9 10 11 12 13 14
000
FTUS44 KCRP 281100 RRA
TAFVCT
TAF
KVCT 281153Z 2812/2912 05004KT P6SM SCT015 BKN120
     FM281300 09008KT P6SM VCSH BKN035 BKN150
     FM281800 11012KT P6SM VCTS BKN035CB BKN150
      TEMPO 2818/2822 4SM TSRA BKN025CB
     FM290000 12006KT P6SM BKN035=

USA.gov is the U.S. government's official web portal to all federal, state and local government web resources and services.